Gravelridge, Arkansas
Current Conditions -  °F | °C
As of 10:35 PM on Friday 24 Oct 2014 (Local Time) from KCDH Reporting Station
Moderate Fog Moderate Fog  
Wind Chill: 54°   Ceiling: 500
Heat Index: 54°   Visibility: 0.5mi
Dew Point: 52°   Wind: 0mph
Humidity: 94%   Direction: NA
Pressure: 30.12"   Gusts: NA
Location:  33.5451°N, 92.2666°W
Report Text: KCDH 250335Z AUTO 00000KT 1/2SM FG VV005 12/11 A3012 RMK AO2
Loading
Personal Weather Stations






























Interactive Weather Map
Tropical Storm Tracking
New forecast layout! Learn more

10-Day Weather Forecast

Advertisements
Track Severe Weather on mobile